Data for 10/11/2010

Time Sea-Level Adjusted Pressure Absolute Pressure Temperature Relative Humidity Dew Point   
(mb) (inHg) (mb) (inHg) (C) (F) (%) (C) (F)
00:05 1019 30.09 849 25.07 11.4 52.5 71 6.3 43.4
00:10 1019 30.09 849 25.07 11.7 53.1 69 6.2 43.2
00:15 1019 30.09 849 25.07 11.9 53.4 69 6.4 43.6
00:20 1019 30.09 849 25.07 11.7 53 70 6.4 43.5
00:25 1019 30.09 849 25.07 11.7 53 69 6.1 43.1
00:30 1019 30.09 849 25.07 11.7 53 70 6.4 43.5
00:35 1019 30.09 849 25.07 11.2 52.2 72 6.4 43.5
00:40 1019 30.09 849 25.07 10.7 51.2 73 6.2 43.1
00:45 1019 30.09 849 25.07 10.7 51.2 72 5.9 42.6
00:50 1019 30.09 849 25.07 10.8 51.5 72 6.1 42.9
00:55 1019 30.09 849 25.07 10.6 51 73 6 42.8
01:00 1019 30.09 849 25.07 10.3 50.6 73 5.8 42.4
01:05 1019 30.09 849 25.07 10.2 50.4 74 5.8 42.5
01:10 1019 30.09 849 25.07 9.8 49.6 76 5.8 42.4
01:15 1019 30.09 848 25.04 9.8 49.7 75 5.6 42
01:20 1019 30.09 848 25.04 9.8 49.7 75 5.7 42.2
01:25 1019 30.09 848 25.04 10 50 74 5.6 42.1
01:30 1019 30.09 848 25.04 10 50 74 5.6 42.2
01:35 1019 30.09 848 25.04 9.9 49.8 74 5.6 42.1
01:40 1019 30.09 848 25.04 9.6 49.3 75 5.4 41.7
01:45 1019 30.09 848 25.04 10.2 50.4 73 5.6 42.1
01:50 1019 30.09 848 25.04 10.6 51 72 5.7 42.3
01:55 1019 30.09 848 25.04 9.8 49.7 75 5.7 42.2
02:00 1019 30.09 848 25.04 9.8 49.6 74 5.4 41.8
02:05 1019 30.09 848 25.04 9.8 49.6 74 5.5 41.9
02:10 1019 30.09 848 25.04 9.7 49.5 76 5.6 42.1
02:15 1019 30.09 848 25.04 9.6 49.3 75 5.4 41.8
02:20 1019 30.09 848 25.04 9.5 49 76 5.5 41.8
02:25 1019 30.09 848 25.04 9.8 49.6 72 5.1 41.2
02:30 1019 30.09 848 25.04 10.3 50.6 72 5.6 42.1
02:35 1019 30.09 848 25.04 10.3 50.6 73 5.7 42.2
02:40 1019 30.09 848 25.04 10.2 50.3 73 5.6 42.1
02:45 1019 30.09 848 25.04 10.3 50.5 73 5.6 42.1
02:50 1019 30.09 848 25.04 10.2 50.4 73 5.6 42.2
02:55 1019 30.09 848 25.04 10.4 50.8 72 5.6 42.1
03:00 1019 30.09 848 25.04 10.4 50.7 72 5.6 42
03:05 1019 30.09 848 25.04 10.4 50.7 72 5.6 42.1
03:10 1019 30.09 848 25.04 10.2 50.3 73 5.6 42.1
03:15 1019 30.09 848 25.04 10 50 74 5.6 42
03:20 1019 30.09 848 25.04 10 49.9 74 5.5 41.9
03:25 1019 30.09 848 25.04 9.8 49.7 74 5.5 41.9
03:30 1019 30.09 848 25.04 9.7 49.4 75 5.4 41.7
03:35 1019 30.09 848 25.04 9.8 49.6 74 5.4 41.6
03:40 1019 30.09 848 25.04 10 50.1 73 5.5 41.8
03:45 1019 30.09 848 25.04 10.1 50.2 73 5.6 42
03:50 1019 30.09 848 25.04 10 50 74 5.5 41.9
03:55 1019 30.09 848 25.04 10.1 50.2 73 5.5 42
04:00 1019 30.09 848 25.04 10.1 50.2 73 5.6 42
04:05 1019 30.09 848 25.04 10.2 50.3 73 5.5 41.9
04:10 1019 30.09 848 25.04 10.1 50.2 72 5.4 41.7
04:15 1019 30.09 848 25.04 10.1 50.2 73 5.4 41.8
04:20 1019 30.09 848 25.04 10.1 50.1 73 5.4 41.8
04:25 1019 30.09 848 25.04 10 50 73 5.4 41.7
04:30 1019 30.09 848 25.04 10 50.1 74 5.6 42
04:35 1019 30.09 848 25.04 10.1 50.1 74 5.6 42.1
04:40 1019 30.09 848 25.04 10.1 50.1 73 5.6 42
04:45 1019 30.09 848 25.04 10.2 50.3 73 5.6 42
04:50 1019 30.09 848 25.04 10.1 50.3 73 5.6 42.1
04:55 1019 30.09 848 25.04 10.2 50.4 72 5.5 41.9
05:00 1019 30.09 848 25.04 10.2 50.3 73 5.6 42
05:05 1019 30.09 848 25.04 10 50 74 5.5 41.9
05:10 1019 30.09 848 25.04 10 49.9 73 5.4 41.7
05:15 1019 30.09 848 25.04 10 49.9 74 5.5 41.9
05:20 1019 30.09 848 25.04 9.9 49.9 74 5.6 42
05:25 1019 30.09 848 25.04 9.9 49.9 74 5.6 42.1
05:30 1019 30.09 848 25.04 9.9 49.9 74 5.6 42.1
05:35 1019 30.09 848 25.04 9.9 49.8 74 5.5 41.9
05:40 1019 30.09 848 25.04 10 49.9 74 5.6 42.1
05:45 1019 30.09 848 25.04 9.9 49.9 74 5.6 42.1
05:50 1019 30.09 848 25.04 10 50 75 5.8 42.4
05:55 1019 30.09 848 25.04 10.3 50.5 74 5.9 42.6
06:00 1019 30.09 849 25.07 10.1 50.1 76 6 42.8
06:05 1020 30.12 849 25.07 9.3 48.8 80 6.1 42.9
06:10 1020 30.12 849 25.07 8.8 47.9 81 5.7 42.3
06:15 1020 30.12 849 25.07 8.7 47.6 81 5.7 42.2
06:20 1020 30.12 849 25.07 8.6 47.4 82 5.6 42.1
06:25 1020 30.12 849 25.07 8.5 47.2 82 5.6 42.2
06:30 1020 30.12 849 25.07 8.4 47 80 5.1 41.2
06:35 1020 30.12 849 25.07 8.8 47.8 78 5.2 41.3
06:40 1020 30.12 849 25.07 9 48.2 78 5.3 41.5
06:45 1020 30.12 850 25.1 9 48.2 78 5.5 41.9
06:50 1020 30.12 850 25.1 8.8 47.9 81 5.7 42.3
06:55 1020 30.12 850 25.1 8.7 47.7 81 5.7 42.2
07:00 1020 30.12 850 25.1 9 48.1 78 5.4 41.7
07:05 1020 30.12 850 25.1 9.4 48.9 77 5.5 42
07:10 1021 30.15 850 25.1 9.5 49.2 77 5.6 42.1
07:15 1021 30.15 850 25.1 9.5 49.1 79 6 42.9
07:20 1021 30.15 850 25.1 9.1 48.4 82 6.1 43
07:25 1021 30.15 850 25.1 8.9 48 83 6.2 43.2
07:30 1021 30.15 850 25.1 8.8 47.8 84 6.2 43.1
07:35 1021 30.15 850 25.1 8.7 47.7 85 6.4 43.5
07:40 1021 30.15 850 25.1 8.6 47.5 86 6.4 43.6
07:45 1021 30.15 850 25.1 8.5 47.4 88 6.6 43.9
07:50 1021 30.15 850 25.1 8.5 47.2 87 6.5 43.7
07:55 1021 30.15 851 25.13 8.3 47 88 6.4 43.6
08:00 1022 30.18 851 25.13 8.3 46.9 89 6.5 43.7
08:05 1022 30.18 851 25.13 8.2 46.8 89 6.6 43.9
08:10 1022 30.18 851 25.13 8.2 46.8 89 6.5 43.7
08:15 1022 30.18 851 25.13 8 46.5 90 6.5 43.8
08:20 1022 30.18 851 25.13 7.8 46.1 90 6.4 43.4
08:25 1022 30.18 851 25.13 7.7 45.9 91 6.3 43.4
08:30 1022 30.18 851 25.13 7.7 45.9 91 6.3 43.4
08:35 1022 30.18 852 25.16 7.7 45.8 91 6.3 43.4
08:40 1022 30.18 851 25.13 7.7 45.8 91 6.3 43.3
08:45 1022 30.18 851 25.13 7.5 45.6 91 6.2 43.1
08:50 1022 30.18 851 25.13 7.5 45.4 91 6 42.9
08:55 1022 30.18 852 25.16 7.5 45.4 91 6.1 42.9
09:00 1022 30.18 852 25.16 7.4 45.2 92 6.1 43
09:05 1022 30.18 852 25.16 7.4 45.2 92 6.1 43
09:10 1022 30.18 851 25.13 7.3 45.1 93 6.2 43.2
09:15 1022 30.18 851 25.13 7.3 45.1 93 6.1 43
09:20 1022 30.18 851 25.13 7.3 45.1 92 6.1 42.9
09:25 1022 30.18 851 25.13 7.3 45.2 91 6 42.8
09:30 1022 30.18 851 25.13 7.4 45.3 91 6.1 43
09:35 1022 30.18 851 25.13 7.5 45.4 92 6.3 43.3
09:40 1022 30.18 851 25.13 7.6 45.6 92 6.3 43.3
09:45 1022 30.18 851 25.13 7.7 45.9 91 6.3 43.4
09:50 1022 30.18 851 25.13 7.8 46.1 91 6.4 43.6
09:55 1022 30.18 851 25.13 7.9 46.2 89 6.2 43.2
10:00 1022 30.18 851 25.13 7.8 46.1 91 6.4 43.5
10:05 1022 30.18 852 25.16 7.9 46.3 90 6.4 43.5
10:10 1022 30.18 852 25.16 8.1 46.5 89 6.4 43.5
10:15 1022 30.18 852 25.16 8.2 46.7 90 6.6 43.9
10:20 1022 30.18 852 25.16 8.3 46.9 89 6.6 43.8
10:25 1022 30.18 852 25.16 8.2 46.8 90 6.6 43.9
10:30 1023 30.21 852 25.16 8.2 46.7 89 6.5 43.7
10:35 1023 30.21 852 25.16 8.1 46.6 90 6.6 43.9
10:40 1023 30.21 852 25.16 8.2 46.8 90 6.6 44
10:45 1023 30.21 852 25.16 8.4 47.2 88 6.6 43.9
10:50 1023 30.21 852 25.16 8.3 46.9 90 6.8 44.2
10:55 1023 30.21 852 25.16 8.4 47.1 89 6.7 44.1
11:00 1023 30.21 852 25.16 8.4 47.1 87 6.4 43.6
11:05 1023 30.21 852 25.16 8.3 47 89 6.5 43.8
11:10 1023 30.21 852 25.16 8.5 47.2 88 6.6 43.9
11:15 1023 30.21 852 25.16 8.6 47.4 88 6.7 44.1
11:20 1023 30.21 852 25.16 8.8 47.9 85 6.4 43.6
11:25 1023 30.21 852 25.16 8.8 47.9 86 6.7 44
11:30 1023 30.21 852 25.16 8.9 48 86 6.7 44
11:35 1023 30.21 852 25.16 9 48.1 85 6.6 43.9
11:40 1023 30.21 852 25.16 9 48.1 85 6.5 43.7
11:45 1023 30.21 852 25.16 9 48.3 83 6.3 43.3
11:50 1023 30.21 852 25.16 9.2 48.6 81 6.2 43.1
11:55 1023 30.21 852 25.16 9.5 49.1 82 6.6 43.9
12:00 1023 30.21 852 25.16 9.9 49.9 81 6.9 44.3
12:05 1023 30.21 852 25.16 10.1 50.1 78 6.5 43.6
12:10 1023 30.21 852 25.16 9.5 49 82 6.6 43.8
12:15 1023 30.21 852 25.16 10 50.1 78 6.4 43.6
12:20 1023 30.21 852 25.16 10.1 50.1 80 6.7 44.1
12:25 1023 30.21 852 25.16 10.3 50.5 80 7 44.5
12:30 1023 30.21 852 25.16 10.6 51.1 77 6.7 44.1
12:35 1023 30.21 852 25.16 10.9 51.6 77 7.1 44.8
12:40 1023 30.21 852 25.16 11 51.8 75 6.7 44.1
12:45 1023 30.21 852 25.16 11 51.8 72 6.1 43
12:50 1023 30.21 852 25.16 10.8 51.5 72 5.9 42.6
12:55 1023 30.21 852 25.16 11 51.8 71 6 42.7
13:00 1023 30.21 852 25.16 11.3 52.4 71 6.3 43.3
13:05 1023 30.21 852 25.16 11.5 52.6 72 6.7 44
13:10 1023 30.21 852 25.16 11.6 52.9 72 6.7 44.1
13:15 1023 30.21 852 25.16 11.8 53.2 68 6.2 43.1
13:20 1023 30.21 852 25.16 11.7 53.1 69 6.2 43.2
13:25 1023 30.21 852 25.16 12 53.6 67 6 42.9
13:30 1023 30.21 852 25.16 11.8 53.2 68 6.1 43.1
13:35 1023 30.21 852 25.16 11.7 53.1 70 6.5 43.7
13:40 1023 30.21 852 25.16 12.3 54.1 66 6.2 43.1
13:45 1023 30.21 852 25.16 13.1 55.5 62 5.9 42.7
13:50 1023 30.21 852 25.16 14 57.2 56 5.4 41.8
13:55 1023 30.21 852 25.16 14.5 58.1 55 5.7 42.3
14:00 1023 30.21 852 25.16 13.7 56.6 57 5.5 41.9
14:05 1023 30.21 852 25.16 13.4 56.2 58 5.3 41.6
14:10 1022 30.18 852 25.16 13.3 55.9 59 5.5 41.8
14:15 1022 30.18 852 25.16 12.9 55.2 60 5.4 41.8
14:20 1022 30.18 852 25.16 13.2 55.7 57 4.8 40.7
14:25 1022 30.18 852 25.16 14.1 57.4 55 5.4 41.7
14:30 1022 30.18 852 25.16 14.3 57.8 53 5 41
14:35 1022 30.18 852 25.16 14.2 57.6 53 4.9 40.9
14:40 1022 30.18 852 25.16 13.7 56.6 55 4.8 40.7
14:45 1022 30.18 852 25.16 14.4 58 52 4.7 40.5
14:50 1022 30.18 852 25.16 14.7 58.5 52 5.2 41.3
14:55 1022 30.18 852 25.16 14.6 58.2 54 5.3 41.6
15:00 1022 30.18 852 25.16 14.5 58 53 5 40.9
15:05 1022 30.18 852 25.16 14.7 58.5 52 5 40.9
15:10 1022 30.18 852 25.16 14.1 57.4 57 5.7 42.3
15:15 1022 30.18 852 25.16 13.5 56.2 56 5 41
15:20 1022 30.18 851 25.13 13.5 56.2 55 4.8 40.6
15:25 1022 30.18 851 25.13 14 57.3 55 5.1 41.3
15:30 1022 30.18 851 25.13 13.6 56.5 57 5.3 41.5
15:35 1022 30.18 851 25.13 12.9 55.2 59 5 41.1
15:40 1022 30.18 851 25.13 12.4 54.3 60 4.9 40.8
15:45 1022 30.18 851 25.13 12.2 54 61 5 41
15:50 1022 30.18 851 25.13 12.3 54.1 61 4.9 40.9
15:55 1022 30.18 852 25.16 13 55.5 58 4.9 40.9
16:00 1022 30.18 852 25.16 13.5 56.2 58 5.4 41.7
16:05 1022 30.18 852 25.16 13.5 56.2 58 5.3 41.6
16:10 1022 30.18 852 25.16 13.6 56.6 58 5.6 42
16:15 1023 30.21 852 25.16 13.2 55.7 59 5.3 41.6
16:20 1023 30.21 852 25.16 13.4 56.2 58 5.3 41.5
16:25 1023 30.21 852 25.16 13.6 56.4 56 5 41
16:30 1023 30.21 852 25.16 14.4 58 53 5.1 41.2
16:35 1023 30.21 852 25.16 14.1 57.4 53 4.9 40.8
16:40 1023 30.21 852 25.16 14 57.1 50 3.8 38.8
16:45 1023 30.21 852 25.16 13.8 56.9 44 1.8 35.3
16:50 1023 30.21 852 25.16 14 57.2 40 0.8 33.4
16:55 1023 30.21 852 25.16 14.1 57.4 41 1 33.8
17:00 1023 30.21 852 25.16 14.2 57.6 41 1.1 34
17:05 1023 30.21 852 25.16 14.2 57.6 39 0.5 33
17:10 1023 30.21 852 25.16 13.9 57 41 0.9 33.7
17:15 1023 30.21 853 25.19 13.8 56.9 44 2 35.5
17:20 1023 30.21 853 25.19 13.7 56.6 41 0.9 33.7
17:25 1024 30.24 853 25.19 13.6 56.4 44 1.7 35.1
17:30 1024 30.24 853 25.19 13.5 56.4 44 1.5 34.6
17:35 1024 30.24 853 25.19 13.3 55.9 43 1.2 34.1
17:40 1024 30.24 853 25.19 13 55.5 44 1.1 34
17:45 1024 30.24 853 25.19 13 55.3 45 1.3 34.3
17:50 1024 30.24 853 25.19 12.9 55.3 44 1.1 34
17:55 1024 30.24 853 25.19 13 55.3 45 1.2 34.2
18:00 1024 30.24 853 25.19 12.7 54.8 46 1.3 34.3
18:05 1024 30.24 853 25.19 12.4 54.4 45 1 33.8
18:10 1024 30.24 853 25.19 12.1 53.9 45 0.6 33.1
18:15 1024 30.24 854 25.22 11.9 53.5 44 0.2 32.4
18:20 1024 30.24 854 25.22 11.7 53 46 0.4 32.6
18:25 1024 30.24 854 25.22 11.5 52.7 45 -0 32
18:30 1025 30.27 854 25.22 11.3 52.4 42 -1 30.3
18:35 1025 30.27 854 25.22 11.1 52 41 -1.5 29.3
18:40 1025 30.27 854 25.22 10.9 51.7 42 -1.4 29.4
18:45 1025 30.27 854 25.22 10.6 51 43 -1.4 29.4
18:50 1025 30.27 854 25.22 10.2 50.4 45 -1.3 29.7
18:55 1025 30.27 854 25.22 9.9 49.9 44 -1.6 29.2
19:00 1025 30.27 854 25.22 9.7 49.5 45 -1.6 29.2
19:05 1025 30.27 854 25.22 9.5 49.1 46 -1.5 29.2
19:10 1025 30.27 855 25.25 9.2 48.6 44 -2.3 27.9
19:15 1026 30.3 855 25.25 9.1 48.4 43 -2.7 27.2
19:20 1026 30.3 855 25.25 9.1 48.3 46 -2 28.4
19:25 1026 30.3 855 25.25 8.7 47.6 46 -2.2 28.1
19:30 1026 30.3 855 25.25 8.6 47.4 47 -2.1 28.2
19:35 1026 30.3 855 25.25 8.6 47.5 45 -2.6 27.4
19:40 1026 30.3 855 25.25 8.5 47.3 45 -2.6 27.3
19:45 1026 30.3 855 25.25 8.4 47.2 46 -2.5 27.5
19:50 1026 30.3 855 25.25 8.3 46.9 42 -3.7 25.4
19:55 1026 30.3 855 25.25 8.4 47 42 -3.6 25.4
20:00 1026 30.3 855 25.25 8.3 46.9 45 -3 26.7
20:05 1026 30.3 856 25.28 8.1 46.5 45 -3.1 26.4
20:10 1026 30.3 856 25.28 8 46.3 43 -3.8 25.2
20:15 1026 30.3 856 25.28 8 46.4 45 -3.1 26.5
20:20 1027 30.33 856 25.28 7.7 45.8 47 -2.9 26.7
20:25 1027 30.33 856 25.28 7.3 45.2 46 -3.6 25.5
20:30 1027 30.33 856 25.28 7.3 45.1 46 -3.5 25.6
20:35 1027 30.33 856 25.28 7.2 44.9 48 -3.2 26.3
20:40 1027 30.33 856 25.28 6.6 44 53 -2.3 27.9
20:45 1027 30.33 856 25.28 5.8 42.5 55 -2.5 27.6
20:50 1027 30.33 856 25.28 5.6 42 56 -2.4 27.7
20:55 1027 30.33 857 25.31 5.6 42.1 56 -2.5 27.5
21:00 1027 30.33 857 25.31 5.8 42.4 54 -2.8 26.9
21:05 1027 30.33 857 25.31 5.9 42.6 52 -3.3 26.1
21:10 1027 30.33 857 25.31 6 42.8 51 -3.4 25.9
21:15 1027 30.33 857 25.31 6 42.8 51 -3.5 25.8
21:20 1027 30.33 857 25.31 6 42.9 50 -3.7 25.4
21:25 1028 30.36 857 25.31 6.2 43.1 48 -4 24.8
21:30 1028 30.36 857 25.31 6.3 43.3 48 -4 24.8
21:35 1028 30.36 857 25.31 6.3 43.3 49 -3.7 25.4
21:40 1028 30.36 857 25.31 6.1 42.9 50 -3.5 25.8
21:45 1028 30.36 857 25.31 5.9 42.5 52 -3.4 26
21:50 1028 30.36 857 25.31 5.7 42.3 52 -3.3 26.1
21:55 1028 30.36 857 25.31 5.6 42 52 -3.6 25.5
22:00 1028 30.36 857 25.31 5.5 41.9 52 -3.7 25.4
22:05 1028 30.36 857 25.31 5.4 41.7 53 -3.5 25.7
22:10 1028 30.36 857 25.31 5.3 41.6 53 -3.6 25.5
22:15 1028 30.36 857 25.31 5.3 41.5 54 -3.3 26.1
22:20 1028 30.36 857 25.31 5.1 41.2 54 -3.4 25.9
22:25 1028 30.36 857 25.31 5.1 41.1 54 -3.4 25.8
22:30 1028 30.36 857 25.31 5.1 41.1 55 -3.3 26
22:35 1028 30.36 857 25.31 5 41 55 -3.3 26.1
22:40 1028 30.36 857 25.31 4.6 40.2 60 -2.6 27.4
22:45 1028 30.36 857 25.31 4 39.2 64 -2.3 27.9
22:50 1028 30.36 857 25.31 3.5 38.3 64 -2.6 27.3
22:55 1028 30.36 857 25.31 3.6 38.6 63 -2.8 26.9
23:00 1028 30.36 857 25.31 3.6 38.5 66 -2.1 28.3
23:05 1028 30.36 857 25.31 2.8 37 70 -2.1 28.2
23:10 1028 30.36 857 25.31 2.7 36.9 70 -2.2 28
23:15 1028 30.36 857 25.31 2.7 36.8 69 -2.4 27.7
23:20 1028 30.36 857 25.31 2.7 36.9 68 -2.6 27.2
23:25 1028 30.36 857 25.31 2.9 37.2 66 -2.8 27
23:30 1028 30.36 857 25.31 2.8 37 69 -2.3 27.9
23:35 1028 30.36 857 25.31 2.5 36.6 69 -2.7 27.2
23:40 1028 30.36 857 25.31 2.5 36.5 68 -2.9 26.8
23:45 1028 30.36 858 25.34 2.4 36.3 67 -3.1 26.4
23:50 1028 30.36 858 25.34 2.5 36.5 67 -3 26.7
23:55 1028 30.36 858 25.34 2.4 36.3 68 -2.8 26.9
24:00 1028 30.36 858 25.34 2.2 35.9 70 -2.7 27.1